sensor_id;sensor_type;location;lat;lon;timestamp;pressure;altitude;pressure_sealevel;temperature;humidity
11444;BME280;5778;47.856;12.154;2023-06-14T00:00:51;95819.88;;;12.21;100.00
11444;BME280;5778;47.856;12.154;2023-06-14T00:03:22;95822.59;;;12.06;100.00
11444;BME280;5778;47.856;12.154;2023-06-14T00:05:50;95818.56;;;12.13;100.00
11444;BME280;5778;47.856;12.154;2023-06-14T00:08:17;95824.69;;;12.14;100.00
11444;BME280;5778;47.856;12.154;2023-06-14T00:10:44;95826.53;;;12.18;100.00
11444;BME280;5778;47.856;12.154;2023-06-14T00:13:11;95826.63;;;11.98;100.00
11444;BME280;5778;47.856;12.154;2023-06-14T00:15:38;95825.28;;;11.96;100.00
11444;BME280;5778;47.856;12.154;2023-06-14T00:18:06;95821.56;;;11.92;100.00
11444;BME280;5778;47.856;12.154;2023-06-14T00:20:35;95821.09;;;11.70;100.00
11444;BME280;5778;47.856;12.154;2023-06-14T00:23:02;95828.59;;;11.43;100.00
11444;BME280;5778;47.856;12.154;2023-06-14T00:25:29;95818.50;;;11.35;100.00
11444;BME280;5778;47.856;12.154;2023-06-14T00:27:56;95818.00;;;11.23;100.00
11444;BME280;5778;47.856;12.154;2023-06-14T00:30:24;95814.25;;;11.14;100.00
11444;BME280;5778;47.856;12.154;2023-06-14T00:32:50;95813.75;;;11.17;100.00
11444;BME280;5778;47.856;12.154;2023-06-14T00:35:19;95814.50;;;11.32;100.00
11444;BME280;5778;47.856;12.154;2023-06-14T00:37:46;95814.25;;;11.19;100.00
11444;BME280;5778;47.856;12.154;2023-06-14T00:40:13;95819.31;;;11.25;100.00
11444;BME280;5778;47.856;12.154;2023-06-14T00:42:40;95811.34;;;11.10;100.00
11444;BME280;5778;47.856;12.154;2023-06-14T00:45:07;95820.34;;;11.24;100.00
11444;BME280;5778;47.856;12.154;2023-06-14T00:47:35;95816.91;;;11.24;100.00
11444;BME280;5778;47.856;12.154;2023-06-14T00:50:06;95819.56;;;11.29;100.00
11444;BME280;5778;47.856;12.154;2023-06-14T00:52:36;95813.69;;;11.32;100.00
11444;BME280;5778;47.856;12.154;2023-06-14T00:55:03;95815.84;;;11.25;100.00
11444;BME280;5778;47.856;12.154;2023-06-14T00:57:31;95818.00;;;11.23;100.00
11444;BME280;5778;47.856;12.154;2023-06-14T00:59:58;95812.66;;;11.13;100.00
11444;BME280;5778;47.856;12.154;2023-06-14T01:02:25;95815.31;;;10.78;100.00
11444;BME280;5778;47.856;12.154;2023-06-14T01:04:52;95820.34;;;10.69;100.00
11444;BME280;5778;47.856;12.154;2023-06-14T01:07:28;95819.28;;;10.75;100.00
11444;BME280;5778;47.856;12.154;2023-06-14T01:10:09;95820.13;;;10.91;100.00
11444;BME280;5778;47.856;12.154;2023-06-14T01:12:44;95807.34;;;10.98;100.00
11444;BME280;5778;47.856;12.154;2023-06-14T01:15:15;95808.69;;;11.00;100.00
11444;BME280;5778;47.856;12.154;2023-06-14T01:17:44;95814.25;;;11.04;100.00
11444;BME280;5778;47.856;12.154;2023-06-14T01:20:13;95811.84;;;11.02;100.00
11444;BME280;5778;47.856;12.154;2023-06-14T01:22:50;95808.16;;;10.93;100.00
11444;BME280;5778;47.856;12.154;2023-06-14T01:25:18;95807.59;;;10.96;100.00
11444;BME280;5778;47.856;12.154;2023-06-14T01:27:48;95810.28;;;11.01;100.00
11444;BME280;5778;47.856;12.154;2023-06-14T01:30:17;95810.53;;;11.00;100.00
11444;BME280;5778;47.856;12.154;2023-06-14T01:32:46;95816.13;;;10.98;100.00
11444;BME280;5778;47.856;12.154;2023-06-14T01:35:14;95819.56;;;10.94;100.00
11444;BME280;5778;47.856;12.154;2023-06-14T01:37:42;95815.03;;;10.74;100.00
11444;BME280;5778;47.856;12.154;2023-06-14T01:40:12;95814.78;;;10.81;100.00
11444;BME280;5778;47.856;12.154;2023-06-14T01:42:41;95825.44;;;10.81;100.00
11444;BME280;5778;47.856;12.154;2023-06-14T01:45:09;95813.44;;;10.43;100.00
11444;BME280;5778;47.856;12.154;2023-06-14T01:47:37;95813.66;;;10.32;100.00
11444;BME280;5778;47.856;12.154;2023-06-14T01:50:05;95807.28;;;10.33;100.00
11444;BME280;5778;47.856;12.154;2023-06-14T01:52:32;95814.97;;;10.29;100.00
11444;BME280;5778;47.856;12.154;2023-06-14T01:54:59;95811.22;;;10.15;100.00
11444;BME280;5778;47.856;12.154;2023-06-14T01:57:30;95809.38;;;10.21;100.00
11444;BME280;5778;47.856;12.154;2023-06-14T01:59:58;95808.78;;;10.04;100.00
11444;BME280;5778;47.856;12.154;2023-06-14T02:02:25;95811.09;;;9.85;100.00
11444;BME280;5778;47.856;12.154;2023-06-14T02:04:52;95817.28;;;10.06;100.00
11444;BME280;5778;47.856;12.154;2023-06-14T02:07:22;95817.31;;;10.11;100.00
11444;BME280;5778;47.856;12.154;2023-06-14T02:09:50;95819.91;;;10.01;100.00
11444;BME280;5778;47.856;12.154;2023-06-14T02:12:17;95816.69;;;9.94;100.00
11444;BME280;5778;47.856;12.154;2023-06-14T02:14:46;95817.25;;;10.01;100.00
11444;BME280;5778;47.856;12.154;2023-06-14T02:17:14;95814.09;;;10.04;100.00
11444;BME280;5778;47.856;12.154;2023-06-14T02:19:41;95822.00;;;9.94;100.00
11444;BME280;5778;47.856;12.154;2023-06-14T02:22:08;95819.31;;;9.84;100.00
11444;BME280;5778;47.856;12.154;2023-06-14T02:24:35;95821.44;;;9.82;100.00
11444;BME280;5778;47.856;12.154;2023-06-14T02:27:02;95813.66;;;9.70;100.00
11444;BME280;5778;47.856;12.154;2023-06-14T02:29:29;95817.00;;;9.51;100.00
11444;BME280;5778;47.856;12.154;2023-06-14T02:31:57;95820.47;;;9.51;100.00
11444;BME280;5778;47.856;12.154;2023-06-14T02:34:24;95823.13;;;9.51;100.00
11444;BME280;5778;47.856;12.154;2023-06-14T02:36:51;95819.59;;;9.41;100.00
11444;BME280;5778;47.856;12.154;2023-06-14T02:39:19;95819.59;;;9.41;100.00
11444;BME280;5778;47.856;12.154;2023-06-14T02:41:48;95819.31;;;9.37;100.00
11444;BME280;5778;47.856;12.154;2023-06-14T02:44:17;95822.06;;;9.52;100.00
11444;BME280;5778;47.856;12.154;2023-06-14T02:46:44;95816.38;;;9.34;100.00
11444;BME280;5778;47.856;12.154;2023-06-14T02:49:14;95816.44;;;9.44;100.00
11444;BME280;5778;47.856;12.154;2023-06-14T02:51:41;95811.16;;;9.49;100.00
11444;BME280;5778;47.856;12.154;2023-06-14T02:54:08;95812.22;;;9.43;100.00
11444;BME280;5778;47.856;12.154;2023-06-14T02:56:38;95816.41;;;9.39;100.00
11444;BME280;5778;47.856;12.154;2023-06-14T02:59:05;95814.41;;;9.14;100.00
11444;BME280;5778;47.856;12.154;2023-06-14T03:01:32;95814.97;;;9.21;100.00
11444;BME280;5778;47.856;12.154;2023-06-14T03:04:03;95823.63;;;9.07;100.00
11444;BME280;5778;47.856;12.154;2023-06-14T03:06:36;95817.31;;;9.13;100.00
11444;BME280;5778;47.856;12.154;2023-06-14T03:09:04;95822.59;;;9.13;100.00
11444;BME280;5778;47.856;12.154;2023-06-14T03:11:31;95826.03;;;9.08;100.00
11444;BME280;5778;47.856;12.154;2023-06-14T03:14:00;95821.25;;;9.10;100.00
11444;BME280;5778;47.856;12.154;2023-06-14T03:16:29;95825.66;;;8.95;100.00
11444;BME280;5778;47.856;12.154;2023-06-14T03:18:58;95832.06;;;8.99;100.00
11444;BME280;5778;47.856;12.154;2023-06-14T03:21:28;95830.53;;;9.08;100.00
11444;BME280;5778;47.856;12.154;2023-06-14T03:23:59;95836.84;;;9.02;100.00
11444;BME280;5778;47.856;12.154;2023-06-14T03:26:28;95830.47;;;9.03;100.00
11444;BME280;5778;47.856;12.154;2023-06-14T03:28:56;95834.78;;;9.09;100.00
11444;BME280;5778;47.856;12.154;2023-06-14T03:31:23;95832.44;;;9.12;100.00
11444;BME280;5778;47.856;12.154;2023-06-14T03:33:50;95833.22;;;9.13;100.00
11444;BME280;5778;47.856;12.154;2023-06-14T03:36:19;95836.47;;;9.25;100.00
11444;BME280;5778;47.856;12.154;2023-06-14T03:38:46;95835.44;;;9.26;100.00
11444;BME280;5778;47.856;12.154;2023-06-14T03:41:17;95836.56;;;9.35;100.00
11444;BME280;5778;47.856;12.154;2023-06-14T03:43:44;95838.41;;;9.34;100.00
11444;BME280;5778;47.856;12.154;2023-06-14T03:46:11;95838.31;;;9.19;100.00
11444;BME280;5778;47.856;12.154;2023-06-14T03:48:37;95843.06;;;9.17;100.00
11444;BME280;5778;47.856;12.154;2023-06-14T03:51:06;95849.66;;;9.15;100.00
11444;BME280;5778;47.856;12.154;2023-06-14T03:53:33;95852.91;;;9.22;100.00
11444;BME280;5778;47.856;12.154;2023-06-14T03:56:03;95855.81;;;9.20;100.00
11444;BME280;5778;47.856;12.154;2023-06-14T03:58:39;95859.94;;;9.38;100.00
11444;BME280;5778;47.856;12.154;2023-06-14T04:01:06;95861.88;;;9.52;100.00
11444;BME280;5778;47.856;12.154;2023-06-14T04:03:33;95862.94;;;9.51;100.00
11444;BME280;5778;47.856;12.154;2023-06-14T04:06:04;95876.00;;;9.63;100.00
11444;BME280;5778;47.856;12.154;2023-06-14T04:08:31;95872.09;;;9.75;100.00
11444;BME280;5778;47.856;12.154;2023-06-14T04:10:58;95878.75;;;9.78;100.00
11444;BME280;5778;47.856;12.154;2023-06-14T04:13:25;95879.88;;;9.87;100.00
11444;BME280;5778;47.856;12.154;2023-06-14T04:15:54;95878.94;;;10.08;100.00
11444;BME280;5778;47.856;12.154;2023-06-14T04:18:26;95882.97;;;10.20;100.00
11444;BME280;5778;47.856;12.154;2023-06-14T04:20:53;95882.75;;;10.32;100.00
11444;BME280;5778;47.856;12.154;2023-06-14T04:23:22;95887.00;;;10.33;100.00
11444;BME280;5778;47.856;12.154;2023-06-14T04:25:49;95889.69;;;10.38;100.00
11444;BME280;5778;47.856;12.154;2023-06-14T04:28:16;95888.34;;;10.35;100.00
11444;BME280;5778;47.856;12.154;2023-06-14T04:30:45;95896.88;;;10.47;100.00
11444;BME280;5778;47.856;12.154;2023-06-14T04:33:15;95896.09;;;10.47;100.00
11444;BME280;5778;47.856;12.154;2023-06-14T04:35:43;95895.88;;;10.63;100.00
11444;BME280;5778;47.856;12.154;2023-06-14T04:38:13;95894.81;;;10.74;100.00
11444;BME280;5778;47.856;12.154;2023-06-14T04:40:40;95889.78;;;10.78;100.00
11444;BME280;5778;47.856;12.154;2023-06-14T04:43:11;95896.19;;;10.92;100.00
11444;BME280;5778;47.856;12.154;2023-06-14T04:45:40;95903.16;;;11.23;100.00
11444;BME280;5778;47.856;12.154;2023-06-14T04:48:11;95905.28;;;11.36;100.00
11444;BME280;5778;47.856;12.154;2023-06-14T04:50:39;95911.94;;;11.38;100.00
11444;BME280;5778;47.856;12.154;2023-06-14T04:53:07;95910.63;;;11.61;100.00
11444;BME280;5778;47.856;12.154;2023-06-14T04:55:35;95910.59;;;11.26;100.00
11444;BME280;5778;47.856;12.154;2023-06-14T04:58:03;95917.53;;;11.72;100.00
11444;BME280;5778;47.856;12.154;2023-06-14T05:00:30;95922.59;;;11.68;100.00
11444;BME280;5778;47.856;12.154;2023-06-14T05:02:57;95920.81;;;12.37;100.00
11444;BME280;5778;47.856;12.154;2023-06-14T05:05:26;95915.91;;;12.64;100.00
11444;BME280;5778;47.856;12.154;2023-06-14T05:07:55;95915.16;;;13.07;100.00
11444;BME280;5778;47.856;12.154;2023-06-14T05:10:22;95910.47;;;13.28;100.00
11444;BME280;5778;47.856;12.154;2023-06-14T05:12:49;95910.56;;;13.51;100.00
11444;BME280;5778;47.856;12.154;2023-06-14T05:15:18;95916.00;;;13.36;100.00
11444;BME280;5778;47.856;12.154;2023-06-14T05:17:46;95913.03;;;13.43;100.00
11444;BME280;5778;47.856;12.154;2023-06-14T05:20:20;95918.78;;;13.60;100.00
11444;BME280;5778;47.856;12.154;2023-06-14T05:22:48;95923.28;;;13.93;100.00
11444;BME280;5778;47.856;12.154;2023-06-14T05:25:18;95920.66;;;13.88;100.00
11444;BME280;5778;47.856;12.154;2023-06-14T05:27:45;95923.56;;;13.63;100.00
11444;BME280;5778;47.856;12.154;2023-06-14T05:30:13;95922.41;;;13.74;100.00
11444;BME280;5778;47.856;12.154;2023-06-14T05:32:40;95922.59;;;13.82;100.00
11444;BME280;5778;47.856;12.154;2023-06-14T05:35:08;95917.28;;;14.06;100.00
11444;BME280;5778;47.856;12.154;2023-06-14T05:37:35;95921.13;;;14.47;100.00
11444;BME280;5778;47.856;12.154;2023-06-14T05:40:02;95926.56;;;14.37;100.00
11444;BME280;5778;47.856;12.154;2023-06-14T05:42:33;95928.53;;;14.31;100.00
11444;BME280;5778;47.856;12.154;2023-06-14T05:45:00;95923.50;;;14.72;100.00
11444;BME280;5778;47.856;12.154;2023-06-14T05:47:27;95929.75;;;15.04;100.00
11444;BME280;5778;47.856;12.154;2023-06-14T05:49:54;95928.78;;;15.14;100.00
11444;BME280;5778;47.856;12.154;2023-06-14T05:52:21;95932.41;;;15.23;100.00
11444;BME280;5778;47.856;12.154;2023-06-14T05:54:48;95932.53;;;15.36;100.00
11444;BME280;5778;47.856;12.154;2023-06-14T05:57:17;95928.50;;;15.71;100.00
11444;BME280;5778;47.856;12.154;2023-06-14T05:59:45;95926.34;;;15.86;100.00
11444;BME280;5778;47.856;12.154;2023-06-14T06:02:12;95934.13;;;15.69;100.00
11444;BME280;5778;47.856;12.154;2023-06-14T06:04:38;95931.47;;;15.69;100.00
11444;BME280;5778;47.856;12.154;2023-06-14T06:07:05;95929.06;;;15.68;100.00
11444;BME280;5778;47.856;12.154;2023-06-14T06:09:32;95929.78;;;15.73;100.00
11444;BME280;5778;47.856;12.154;2023-06-14T06:11:59;95935.63;;;15.43;100.00
11444;BME280;5778;47.856;12.154;2023-06-14T06:14:26;95937.88;;;15.55;100.00
11444;BME280;5778;47.856;12.154;2023-06-14T06:16:55;95939.69;;;15.73;100.00
11444;BME280;5778;47.856;12.154;2023-06-14T06:19:22;95939.28;;;15.98;100.00
11444;BME280;5778;47.856;12.154;2023-06-14T06:21:49;95936.88;;;15.83;100.00
11444;BME280;5778;47.856;12.154;2023-06-14T06:24:16;95941.72;;;16.13;100.00
11444;BME280;5778;47.856;12.154;2023-06-14T06:26:43;95936.88;;;15.83;100.00
11444;BME280;5778;47.856;12.154;2023-06-14T06:29:10;95935.66;;;16.21;100.00
11444;BME280;5778;47.856;12.154;2023-06-14T06:31:37;95946.91;;;15.59;100.00
11444;BME280;5778;47.856;12.154;2023-06-14T06:34:05;95944.53;;;15.57;100.00
11444;BME280;5778;47.856;12.154;2023-06-14T06:36:32;95948.41;;;15.83;100.00
11444;BME280;5778;47.856;12.154;2023-06-14T06:38:59;95952.94;;;15.83;100.00
11444;BME280;5778;47.856;12.154;2023-06-14T06:41:26;95947.88;;;16.27;100.00
11444;BME280;5778;47.856;12.154;2023-06-14T06:43:53;95953.94;;;16.19;100.00
11444;BME280;5778;47.856;12.154;2023-06-14T06:46:21;95948.63;;;16.46;100.00
11444;BME280;5778;47.856;12.154;2023-06-14T06:48:48;95950.47;;;16.32;100.00
11444;BME280;5778;47.856;12.154;2023-06-14T06:51:16;95943.84;;;16.70;100.00
11444;BME280;5778;47.856;12.154;2023-06-14T06:53:43;95945.22;;;16.94;100.00
11444;BME280;5778;47.856;12.154;2023-06-14T06:56:10;95945.16;;;16.45;100.00
11444;BME280;5778;47.856;12.154;2023-06-14T06:58:37;95944.41;;;17.07;100.00
11444;BME280;5778;47.856;12.154;2023-06-14T07:01:04;95949.03;;;17.42;100.00
11444;BME280;5778;47.856;12.154;2023-06-14T07:03:30;95952.09;;;17.71;100.00
11444;BME280;5778;47.856;12.154;2023-06-14T07:05:57;95951.44;;;18.32;100.00
11444;BME280;5778;47.856;12.154;2023-06-14T07:08:26;95957.19;;;18.47;100.00
11444;BME280;5778;47.856;12.154;2023-06-14T07:10:53;95953.88;;;18.50;99.35
11444;BME280;5778;47.856;12.154;2023-06-14T07:13:20;95952.81;;;18.60;99.69
11444;BME280;5778;47.856;12.154;2023-06-14T07:15:47;95961.25;;;18.75;94.89
11444;BME280;5778;47.856;12.154;2023-06-14T07:18:14;95958.66;;;19.01;93.23
11444;BME280;5778;47.856;12.154;2023-06-14T07:20:41;95957.97;;;18.87;88.14
11444;BME280;5778;47.856;12.154;2023-06-14T07:23:08;95966.78;;;19.09;89.55
11444;BME280;5778;47.856;12.154;2023-06-14T07:25:37;95967.25;;;19.11;85.96
11444;BME280;5778;47.856;12.154;2023-06-14T07:28:04;95960.25;;;19.02;87.63
11444;BME280;5778;47.856;12.154;2023-06-14T07:30:32;95969.69;;;19.30;85.98
11444;BME280;5778;47.856;12.154;2023-06-14T07:32:58;95970.25;;;19.18;89.61
11444;BME280;5778;47.856;12.154;2023-06-14T07:35:25;95974.53;;;19.19;78.64
11444;BME280;5778;47.856;12.154;2023-06-14T07:37:52;95963.75;;;19.11;81.32
11444;BME280;5778;47.856;12.154;2023-06-14T07:40:19;95969.50;;;19.18;91.64
11444;BME280;5778;47.856;12.154;2023-06-14T07:42:47;95966.59;;;19.14;90.45
11444;BME280;5778;47.856;12.154;2023-06-14T07:45:16;95971.13;;;19.36;83.63
11444;BME280;5778;47.856;12.154;2023-06-14T07:47:43;95970.31;;;19.35;86.98
11444;BME280;5778;47.856;12.154;2023-06-14T07:50:10;95974.13;;;18.78;90.57
11444;BME280;5778;47.856;12.154;2023-06-14T07:52:38;95971.84;;;19.19;90.67
11444;BME280;5778;47.856;12.154;2023-06-14T07:55:05;95967.81;;;19.64;95.60
11444;BME280;5778;47.856;12.154;2023-06-14T07:57:32;95966.03;;;19.43;87.62
11444;BME280;5778;47.856;12.154;2023-06-14T08:00:02;95964.00;;;20.08;82.67
11444;BME280;5778;47.856;12.154;2023-06-14T08:02:37;95960.59;;;20.45;71.57
11444;BME280;5778;47.856;12.154;2023-06-14T08:05:05;95970.66;;;19.93;84.71
11444;BME280;5778;47.856;12.154;2023-06-14T08:07:32;95959.91;;;20.56;64.32
11444;BME280;5778;47.856;12.154;2023-06-14T08:09:58;95962.09;;;21.09;59.96
11444;BME280;5778;47.856;12.154;2023-06-14T08:12:26;95963.84;;;21.05;58.19
11444;BME280;5778;47.856;12.154;2023-06-14T08:14:52;95961.88;;;20.76;55.35
11444;BME280;5778;47.856;12.154;2023-06-14T08:17:21;95964.13;;;21.12;56.40
11444;BME280;5778;47.856;12.154;2023-06-14T08:19:48;95966.09;;;21.52;55.85
11444;BME280;5778;47.856;12.154;2023-06-14T08:22:15;95964.31;;;21.56;52.46
11444;BME280;5778;47.856;12.154;2023-06-14T08:24:43;95970.59;;;21.89;53.52
11444;BME280;5778;47.856;12.154;2023-06-14T08:27:10;95964.66;;;22.28;53.57
11444;BME280;5778;47.856;12.154;2023-06-14T08:29:38;95971.53;;;22.26;49.96
11444;BME280;5778;47.856;12.154;2023-06-14T08:32:06;95970.28;;;22.23;45.02
11444;BME280;5778;47.856;12.154;2023-06-14T08:34:35;95963.38;;;22.46;46.22
11444;BME280;5778;47.856;12.154;2023-06-14T08:37:01;95968.16;;;22.61;44.49
11444;BME280;5778;47.856;12.154;2023-06-14T08:39:28;95969.78;;;22.98;44.98
11444;BME280;5778;47.856;12.154;2023-06-14T08:41:56;95962.56;;;23.14;46.15
11444;BME280;5778;47.856;12.154;2023-06-14T08:44:24;95967.59;;;22.56;43.60
11444;BME280;5778;47.856;12.154;2023-06-14T08:46:51;95973.25;;;22.75;47.84
11444;BME280;5778;47.856;12.154;2023-06-14T08:49:19;95966.75;;;23.36;44.27
11444;BME280;5778;47.856;12.154;2023-06-14T08:51:50;95971.81;;;23.49;44.61
11444;BME280;5778;47.856;12.154;2023-06-14T08:54:21;95964.66;;;23.57;42.38
11444;BME280;5778;47.856;12.154;2023-06-14T08:56:49;95971.31;;;23.71;40.38
11444;BME280;5778;47.856;12.154;2023-06-14T08:59:17;95963.81;;;23.92;40.46
11444;BME280;5778;47.856;12.154;2023-06-14T09:01:47;95971.09;;;24.16;40.36
11444;BME280;5778;47.856;12.154;2023-06-14T09:04:14;95973.56;;;24.21;37.71
11444;BME280;5778;47.856;12.154;2023-06-14T09:06:41;95974.34;;;24.21;39.43
11444;BME280;5778;47.856;12.154;2023-06-14T09:09:10;95971.56;;;24.33;40.75
11444;BME280;5778;47.856;12.154;2023-06-14T09:11:37;95961.72;;;24.29;40.68
11444;BME280;5778;47.856;12.154;2023-06-14T09:14:04;95972.81;;;24.36;39.61
11444;BME280;5778;47.856;12.154;2023-06-14T09:16:32;95970.19;;;24.55;38.00
11444;BME280;5778;47.856;12.154;2023-06-14T09:18:59;95971.13;;;24.59;38.33
11444;BME280;5778;47.856;12.154;2023-06-14T09:21:25;95966.06;;;24.45;37.83
11444;BME280;5778;47.856;12.154;2023-06-14T09:23:52;95973.41;;;24.72;35.23
11444;BME280;5778;47.856;12.154;2023-06-14T09:26:21;95972.00;;;24.94;36.40
11444;BME280;5778;47.856;12.154;2023-06-14T09:28:49;95974.31;;;24.92;37.25
11444;BME280;5778;47.856;12.154;2023-06-14T09:31:18;95980.81;;;24.87;36.37
11444;BME280;5778;47.856;12.154;2023-06-14T09:33:46;95970.72;;;25.03;35.76
11444;BME280;5778;47.856;12.154;2023-06-14T09:36:15;95977.47;;;25.25;35.59
11444;BME280;5778;47.856;12.154;2023-06-14T09:38:51;95973.06;;;25.05;36.45
11444;BME280;5778;47.856;12.154;2023-06-14T09:41:21;95976.47;;;25.48;35.32
11444;BME280;5778;47.856;12.154;2023-06-14T09:43:57;95980.09;;;25.37;33.84
11444;BME280;5778;47.856;12.154;2023-06-14T09:46:26;95977.53;;;25.78;34.10
11444;BME280;5778;47.856;12.154;2023-06-14T09:48:53;95973.69;;;25.79;34.16
11444;BME280;5778;47.856;12.154;2023-06-14T09:51:23;95979.50;;;25.62;33.22
11444;BME280;5778;47.856;12.154;2023-06-14T09:53:50;95977.09;;;26.11;33.64
11444;BME280;5778;47.856;12.154;2023-06-14T09:56:23;95978.94;;;26.07;34.39
11444;BME280;5778;47.856;12.154;2023-06-14T09:58:55;95974.72;;;26.28;32.20
11444;BME280;5778;47.856;12.154;2023-06-14T10:01:23;95984.19;;;26.15;33.10
11444;BME280;5778;47.856;12.154;2023-06-14T10:03:55;95978.47;;;26.01;32.26
11444;BME280;5778;47.856;12.154;2023-06-14T10:06:28;95975.63;;;25.98;31.87
11444;BME280;5778;47.856;12.154;2023-06-14T10:08:56;95974.63;;;26.44;33.60
11444;BME280;5778;47.856;12.154;2023-06-14T10:11:27;95974.34;;;26.49;33.14
11444;BME280;5778;47.856;12.154;2023-06-14T10:13:54;95965.41;;;26.52;32.40
11444;BME280;5778;47.856;12.154;2023-06-14T10:16:27;95975.59;;;26.74;33.09
11444;BME280;5778;47.856;12.154;2023-06-14T10:21:33;95961.31;;;26.01;33.94
11444;BME280;5778;47.856;12.154;2023-06-14T10:24:07;95973.41;;;26.41;33.52
11444;BME280;5778;47.856;12.154;2023-06-14T10:26:50;95966.69;;;25.97;33.03
11444;BME280;5778;47.856;12.154;2023-06-14T10:29:17;95956.47;;;26.51;33.25
11444;BME280;5778;47.856;12.154;2023-06-14T10:31:45;95952.94;;;26.51;32.76
11444;BME280;5778;47.856;12.154;2023-06-14T10:34:21;95964.63;;;26.93;33.65
11444;BME280;5778;47.856;12.154;2023-06-14T10:37:01;95962.31;;;26.95;32.71
11444;BME280;5778;47.856;12.154;2023-06-14T10:39:28;95958.44;;;26.73;32.29
11444;BME280;5778;47.856;12.154;2023-06-14T10:41:58;95955.28;;;26.71;32.89
11444;BME280;5778;47.856;12.154;2023-06-14T10:44:33;95958.56;;;26.80;31.80
11444;BME280;5778;47.856;12.154;2023-06-14T10:47:01;95956.19;;;27.01;31.44
11444;BME280;5778;47.856;12.154;2023-06-14T10:49:39;95954.84;;;27.37;29.75
11444;BME280;5778;47.856;12.154;2023-06-14T10:52:11;95958.72;;;27.36;31.28
11444;BME280;5778;47.856;12.154;2023-06-14T10:55:10;95967.78;;;27.40;31.40
11444;BME280;5778;47.856;12.154;2023-06-14T10:57:42;95952.00;;;27.30;30.40
11444;BME280;5778;47.856;12.154;2023-06-14T11:00:12;95949.31;;;27.59;31.57
11444;BME280;5778;47.856;12.154;2023-06-14T11:02:52;95954.78;;;27.59;31.80
11444;BME280;5778;47.856;12.154;2023-06-14T11:05:24;95957.34;;;27.23;30.69
11444;BME280;5778;47.856;12.154;2023-06-14T11:11:06;95950.06;;;27.08;30.77
11444;BME280;5778;47.856;12.154;2023-06-14T11:13:37;95956.28;;;27.53;31.54
11444;BME280;5778;47.856;12.154;2023-06-14T11:16:10;95954.25;;;27.24;30.81
11444;BME280;5778;47.856;12.154;2023-06-14T11:18:37;95953.47;;;25.46;29.31
11444;BME280;5778;47.856;12.154;2023-06-14T11:21:04;95959.47;;;26.88;30.26
11444;BME280;5778;47.856;12.154;2023-06-14T11:23:31;95957.88;;;26.64;30.36
11444;BME280;5778;47.856;12.154;2023-06-14T11:25:58;95953.47;;;27.24;30.83
11444;BME280;5778;47.856;12.154;2023-06-14T11:28:37;95941.81;;;27.27;31.00
11444;BME280;5778;47.856;12.154;2023-06-14T11:31:04;95943.28;;;27.21;30.99
11444;BME280;5778;47.856;12.154;2023-06-14T11:33:31;95940.56;;;27.47;31.27
11444;BME280;5778;47.856;12.154;2023-06-14T11:35:58;95947.13;;;27.72;30.87
11444;BME280;5778;47.856;12.154;2023-06-14T11:38:25;95933.25;;;27.28;30.81
11444;BME280;5778;47.856;12.154;2023-06-14T11:40:52;95938.31;;;27.26;29.29
11444;BME280;5778;47.856;12.154;2023-06-14T11:43:19;95937.00;;;25.58;27.54
11444;BME280;5778;47.856;12.154;2023-06-14T11:45:49;95939.34;;;26.73;30.91
11444;BME280;5778;47.856;12.154;2023-06-14T11:48:16;95943.75;;;27.04;29.49
11444;BME280;5778;47.856;12.154;2023-06-14T11:50:43;95936.81;;;27.58;31.54
11444;BME280;5778;47.856;12.154;2023-06-14T11:53:10;95930.41;;;28.03;30.16
11444;BME280;5778;47.856;12.154;2023-06-14T11:55:37;95936.13;;;28.24;29.11
11444;BME280;5778;47.856;12.154;2023-06-14T11:58:05;95931.88;;;27.97;29.77
11444;BME280;5778;47.856;12.154;2023-06-14T12:00:35;95930.75;;;27.72;30.20
11444;BME280;5778;47.856;12.154;2023-06-14T12:03:04;95927.75;;;27.51;29.25
11444;BME280;5778;47.856;12.154;2023-06-14T12:05:33;95926.19;;;27.24;30.56
11444;BME280;5778;47.856;12.154;2023-06-14T12:08:02;95931.69;;;27.83;30.69
11444;BME280;5778;47.856;12.154;2023-06-14T12:10:39;95932.13;;;27.85;30.26
11444;BME280;5778;47.856;12.154;2023-06-14T12:13:07;95925.09;;;28.17;29.01
11444;BME280;5778;47.856;12.154;2023-06-14T12:15:34;95920.03;;;28.52;29.98
11444;BME280;5778;47.856;12.154;2023-06-14T12:18:06;95927.81;;;28.46;30.10
11444;BME280;5778;47.856;12.154;2023-06-14T12:20:34;95928.78;;;28.68;28.65
11444;BME280;5778;47.856;12.154;2023-06-14T12:23:03;95921.94;;;29.35;28.65
11444;BME280;5778;47.856;12.154;2023-06-14T12:25:32;95923.09;;;29.34;28.06
11444;BME280;5778;47.856;12.154;2023-06-14T12:28:03;95925.47;;;28.92;27.81
11444;BME280;5778;47.856;12.154;2023-06-14T12:30:30;95923.69;;;28.66;27.84
11444;BME280;5778;47.856;12.154;2023-06-14T12:32:57;95929.72;;;26.79;28.38
11444;BME280;5778;47.856;12.154;2023-06-14T12:35:25;95916.06;;;27.02;29.26
11444;BME280;5778;47.856;12.154;2023-06-14T12:37:52;95914.19;;;27.58;28.15
11444;BME280;5778;47.856;12.154;2023-06-14T12:40:19;95918.59;;;27.95;28.82
11444;BME280;5778;47.856;12.154;2023-06-14T12:42:46;95918.47;;;28.51;29.10
11444;BME280;5778;47.856;12.154;2023-06-14T12:45:14;95924.13;;;29.12;28.14
11444;BME280;5778;47.856;12.154;2023-06-14T12:47:41;95918.25;;;29.10;27.12
11444;BME280;5778;47.856;12.154;2023-06-14T12:50:08;95929.34;;;28.44;28.58
11444;BME280;5778;47.856;12.154;2023-06-14T12:52:36;95926.13;;;29.15;28.12
11444;BME280;5778;47.856;12.154;2023-06-14T12:55:04;95932.00;;;28.07;27.65
11444;BME280;5778;47.856;12.154;2023-06-14T12:57:31;95930.03;;;28.37;28.20
11444;BME280;5778;47.856;12.154;2023-06-14T12:59:59;95934.22;;;28.61;27.80
11444;BME280;5778;47.856;12.154;2023-06-14T13:02:26;95932.75;;;28.74;28.87
11444;BME280;5778;47.856;12.154;2023-06-14T13:04:54;95928.09;;;29.21;27.81
11444;BME280;5778;47.856;12.154;2023-06-14T13:07:23;95924.59;;;29.21;27.68